Time;durP1;ratioP1;P1;durP2;ratioP2;P2;SDS_P1;SDS_P2;PMS_P1;PMS_P2;Temp;Humidity;BMP_temperature;BMP_pressure;BME280_temperature;BME280_humidity;BME280_pressure;Samples;Min_cycle;Max_cycle;Signal;HPM_P1;HPM_P2
2023/06/22 00:01:49;;;;;;;;;;;;;;;;;;5064625;28;19921;-96
2023/06/22 00:04:15;;;;;;;;;;;;;;;;;;5047611;28;19927;-95
2023/06/22 00:06:41;;;;;;;;;;;;;;;;;;5049684;28;20397;-95
2023/06/22 00:09:07;;;;;;;;;;;;;;;;;;5048081;28;19908;-94
2023/06/22 00:11:33;;;;;;;;;;;;;;;;;;5064579;28;19938;-95
2023/06/22 00:13:59;;;;;;;;;;;;;;;;;;5051726;28;19921;-92
2023/06/22 00:16:25;;;;;;;;;;;;;;;;;;5048722;28;19925;-96
2023/06/22 00:18:51;;;;;;;;;;;;;;;;;;5049810;28;20301;-96
2023/06/22 00:21:17;;;;;;;;;;;;;;;;;;5048850;28;20400;-96
2023/06/22 00:23:43;;;;;;;;;;;;;;;;;;5048880;28;20411;-95
2023/06/22 00:26:09;;;;;;;;;;;;;;;;;;5049204;28;19925;-96
2023/06/22 00:28:35;;;;;;;;;;;;;;;;;;5067467;28;20384;-93
2023/06/22 00:31:01;;;;;;;;;;;;;;;;;;5047958;28;19931;-95
2023/06/22 00:33:28;;;;;;;;;;;;;;;;;;5050592;28;19905;-96
2023/06/22 00:35:54;;;;;;;;;;;;;;;;;;5068681;28;19925;-95
2023/06/22 00:38:21;;;;;;;;;;;;;;;;;;5072498;28;19926;-96
2023/06/22 00:40:47;;;;;;;;;;;;;;;;;;5049587;28;19946;-95
2023/06/22 00:43:13;;;;;;;;;;;;;;;;;;5053668;28;19924;-94
2023/06/22 00:45:40;;;;;;;;;;;;;;;;;;5054839;28;19920;-93
2023/06/22 00:48:08;;;;;;;;;;;;;;;;;;5053085;28;19908;-96
2023/06/22 00:50:34;;;;;;;;;;;;;;;;;;5072844;28;19920;-95
2023/06/22 00:53:01;;;;;;;;;;;;;;;;;;5089341;28;19925;-93
2023/06/22 00:55:27;;;;;;;;;;;;;;;;;;5054910;28;19979;-96
2023/06/22 00:57:56;;;;;;;;;;;;;;;;;;5055112;28;19925;-96
2023/06/22 01:00:24;;;;;;;;;;;;;;;;;;5051497;28;19928;-92
2023/06/22 01:02:51;;;;;;;;;;;;;;;;;;5049007;28;19920;-96
2023/06/22 01:05:30;;;;;;;;;;;;;;;;;;5049313;28;19930;-96
2023/06/22 01:07:56;;;;;;;;;;;;;;;;;;5049660;28;19974;-93
2023/06/22 01:10:27;;;;;;;;;;;;;;;;;;5066949;28;19924;-96
2023/06/22 01:12:53;;;;;;;;;;;;;;;;;;5051008;28;20020;-96
2023/06/22 01:15:19;;;;;;;;;;;;;;;;;;5054848;28;19928;-95
2023/06/22 01:17:45;;;;;;;;;;;;;;;;;;5059155;28;19935;-93
2023/06/22 01:20:14;;;;;;;;;;;;;;;;;;5058484;28;19924;-96
2023/06/22 01:22:40;;;;;;;;;;;;;;;;;;5074995;28;19921;-96
2023/06/22 01:25:06;;;;;;;;;;;;;;;;;;5059690;28;19928;-94
2023/06/22 01:27:32;;;;;;;;;;;;;;;;;;5060923;28;19929;-93
2023/06/22 01:30:00;;;;;;;;;;;;;;;;;;5060176;28;19924;-92
2023/06/22 01:32:27;;;;;;;;;;;;;;;;;;5074889;28;19924;-96
2023/06/22 01:34:53;;;;;;;;;;;;;;;;;;5060609;28;19924;-93
2023/06/22 01:37:19;;;;;;;;;;;;;;;;;;5058771;28;19924;-96
2023/06/22 01:39:45;;;;;;;;;;;;;;;;;;5055704;28;19908;-94
2023/06/22 01:42:11;;;;;;;;;;;;;;;;;;5051327;28;19954;-96
2023/06/22 01:44:37;;;;;;;;;;;;;;;;;;5051857;28;20397;-92
2023/06/22 01:47:03;;;;;;;;;;;;;;;;;;5073243;28;19928;-92
2023/06/22 01:49:29;;;;;;;;;;;;;;;;;;5061506;28;19923;-94
2023/06/22 01:51:55;;;;;;;;;;;;;;;;;;5059381;28;19980;-94
2023/06/22 01:54:21;;;;;;;;;;;;;;;;;;5059585;28;19932;-95
2023/06/22 01:56:47;;;;;;;;;;;;;;;;;;5058716;28;19925;-93
2023/06/22 01:59:13;;;;;;;;;;;;;;;;;;5058556;28;19924;-96
2023/06/22 02:01:39;;;;;;;;;;;;;;;;;;5053924;28;19931;-95
2023/06/22 02:04:05;;;;;;;;;;;;;;;;;;5051834;28;19924;-92
2023/06/22 02:06:34;;;;;;;;;;;;;;;;;;5071126;28;19971;-94
2023/06/22 02:09:01;;;;;;;;;;;;;;;;;;5055811;28;19932;-93
2023/06/22 02:11:27;;;;;;;;;;;;;;;;;;5061590;28;19971;-94
2023/06/22 02:13:53;;;;;;;;;;;;;;;;;;5059870;28;19908;-95
2023/06/22 02:16:19;;;;;;;;;;;;;;;;;;5057554;28;19925;-96
2023/06/22 02:18:45;;;;;;;;;;;;;;;;;;5052549;28;19992;-95
2023/06/22 02:21:11;;;;;;;;;;;;;;;;;;5055673;28;19931;-96
2023/06/22 02:23:37;;;;;;;;;;;;;;;;;;5053146;28;19924;-94
2023/06/22 02:26:03;;;;;;;;;;;;;;;;;;5057808;28;19924;-96
2023/06/22 02:28:29;;;;;;;;;;;;;;;;;;5052762;28;19925;-93
2023/06/22 02:30:55;;;;;;;;;;;;;;;;;;5071365;28;19924;-95
2023/06/22 02:33:21;;;;;;;;;;;;;;;;;;5055513;28;19988;-95
2023/06/22 02:35:48;;;;;;;;;;;;;;;;;;5054244;28;19999;-95
2023/06/22 02:38:14;;;;;;;;;;;;;;;;;;5049495;28;19931;-94
2023/06/22 02:40:40;;;;;;;;;;;;;;;;;;5051298;28;19944;-96
2023/06/22 02:43:06;;;;;;;;;;;;;;;;;;5047191;28;19984;-94
2023/06/22 02:45:32;;;;;;;;;;;;;;;;;;5048012;28;19929;-92
2023/06/22 02:47:58;;;;;;;;;;;;;;;;;;5052173;28;19925;-91
2023/06/22 02:50:24;;;;;;;;;;;;;;;;;;5056342;28;19960;-95
2023/06/22 02:52:50;;;;;;;;;;;;;;;;;;5063968;28;19935;-96
2023/06/22 02:55:17;;;;;;;;;;;;;;;;;;5060326;28;20010;-94
2023/06/22 02:57:44;;;;;;;;;;;;;;;;;;5053628;28;19920;-95
2023/06/22 03:00:16;;;;;;;;;;;;;;;;;;5054808;28;20300;-95
2023/06/22 03:02:43;;;;;;;;;;;;;;;;;;5054050;28;19935;-96
2023/06/22 03:05:13;;;;;;;;;;;;;;;;;;5056242;28;19924;-96
2023/06/22 03:07:39;;;;;;;;;;;;;;;;;;5056588;28;19947;-96
2023/06/22 03:10:05;;;;;;;;;;;;;;;;;;5054633;28;20424;-96
2023/06/22 03:12:31;;;;;;;;;;;;;;;;;;5056962;28;19956;-95
2023/06/22 03:14:58;;;;;;;;;;;;;;;;;;5070792;28;19928;-95
2023/06/22 03:17:23;;;;;;;;;;;;;;;;;;5050220;28;19915;-93
2023/06/22 03:19:56;;;;;;;;;;;;;;;;;;5051882;28;19924;-95
2023/06/22 03:22:22;;;;;;;;;;;;;;;;;;5049794;28;20341;-95
2023/06/22 03:24:48;;;;;;;;;;;;;;;;;;5067309;28;19912;-91
2023/06/22 03:27:14;;;;;;;;;;;;;;;;;;5051442;28;19921;-95
2023/06/22 03:29:40;;;;;;;;;;;;;;;;;;5048939;28;20369;-89
2023/06/22 03:32:06;;;;;;;;;;;;;;;;;;5047216;28;19992;-94
2023/06/22 03:34:38;;;;;;;;;;;;;;;;;;5048828;28;19927;-93
2023/06/22 03:37:07;;;;;;;;;;;;;;;;;;5050080;28;19912;-94
2023/06/22 03:39:33;;;;;;;;;;;;;;;;;;5056354;28;19960;-96
2023/06/22 03:41:59;;;;;;;;;;;;;;;;;;5052442;28;19924;-91
2023/06/22 03:44:25;;;;;;;;;;;;;;;;;;5069900;28;20400;-92
2023/06/22 03:46:51;;;;;;;;;;;;;;;;;;5052446;28;19928;-95
2023/06/22 03:49:17;;;;;;;;;;;;;;;;;;5067722;28;19956;-95
2023/06/22 03:51:43;;;;;;;;;;;;;;;;;;5052102;28;20011;-95
2023/06/22 03:54:09;;;;;;;;;;;;;;;;;;5056015;28;19925;-94
2023/06/22 03:56:35;;;;;;;;;;;;;;;;;;5054420;28;19925;-93
2023/06/22 03:59:01;;;;;;;;;;;;;;;;;;5050897;28;19912;-95
2023/06/22 04:01:27;;;;;;;;;;;;;;;;;;5052994;28;19925;-93
2023/06/22 04:03:53;;;;;;;;;;;;;;;;;;5053004;28;20387;-94
2023/06/22 04:06:19;;;;;;;;;;;;;;;;;;5049920;28;19991;-95
2023/06/22 04:08:48;;;;;;;;;;;;;;;;;;5048914;28;19925;-95
2023/06/22 04:11:13;;;;;;;;;;;;;;;;;;5047094;28;20019;-90
2023/06/22 04:13:39;;;;;;;;;;;;;;;;;;5044445;28;19963;-94
2023/06/22 04:16:05;;;;;;;;;;;;;;;;;;5046889;28;19924;-92
2023/06/22 04:18:31;;;;;;;;;;;;;;;;;;5046772;28;19996;-95
2023/06/22 04:20:57;;;;;;;;;;;;;;;;;;5044883;28;20360;-93
2023/06/22 04:23:23;;;;;;;;;;;;;;;;;;5045762;28;19931;-94
2023/06/22 04:25:50;;;;;;;;;;;;;;;;;;5045123;28;19943;-93
2023/06/22 04:28:17;;;;;;;;;;;;;;;;;;5046320;28;19920;-94
2023/06/22 04:30:46;;;;;;;;;;;;;;;;;;5047556;28;20392;-95
2023/06/22 04:33:12;;;;;;;;;;;;;;;;;;5048222;28;19929;-96
2023/06/22 04:35:41;;;;;;;;;;;;;;;;;;5041636;28;19920;-90
2023/06/22 04:38:07;;;;;;;;;;;;;;;;;;5042504;28;19952;-90
2023/06/22 04:40:33;;;;;;;;;;;;;;;;;;5041597;28;19931;-91
2023/06/22 04:43:02;;;;;;;;;;;;;;;;;;5058258;28;19927;-90
2023/06/22 04:45:27;;;;;;;;;;;;;;;;;;5057550;28;19920;-89
2023/06/22 04:47:53;;;;;;;;;;;;;;;;;;5041267;28;19931;-89
2023/06/22 04:50:21;;;;;;;;;;;;;;;;;;5045300;28;19987;-89
2023/06/22 04:52:46;;;;;;;;;;;;;;;;;;5044546;28;20327;-88
2023/06/22 04:55:12;;;;;;;;;;;;;;;;;;5061671;28;19924;-87
2023/06/22 04:57:39;;;;;;;;;;;;;;;;;;5045329;28;19927;-89
2023/06/22 05:00:12;;;;;;;;;;;;;;;;;;5044889;28;20019;-88
2023/06/22 05:02:38;;;;;;;;;;;;;;;;;;5045186;28;19921;-87
2023/06/22 05:05:07;;;;;;;;;;;;;;;;;;5044997;28;19950;-88
2023/06/22 05:07:32;;;;;;;;;;;;;;;;;;5061034;28;20385;-89
2023/06/22 05:09:58;;;;;;;;;;;;;;;;;;5044356;28;19924;-88
2023/06/22 05:12:24;;;;;;;;;;;;;;;;;;5045226;28;19924;-89
2023/06/22 05:14:50;;;;;;;;;;;;;;;;;;5044108;28;20375;-89
2023/06/22 05:17:18;;;;;;;;;;;;;;;;;;5060710;28;19926;-89
2023/06/22 05:19:48;;;;;;;;;;;;;;;;;;5044005;28;20010;-87
2023/06/22 05:22:14;;;;;;;;;;;;;;;;;;5044482;28;19926;-88
2023/06/22 05:24:39;;;;;;;;;;;;;;;;;;5043820;28;19972;-89
2023/06/22 05:27:05;;;;;;;;;;;;;;;;;;5043957;28;19925;-89
2023/06/22 05:29:31;;;;;;;;;;;;;;;;;;5043902;28;19924;-88
2023/06/22 05:31:57;;;;;;;;;;;;;;;;;;5043968;28;19949;-89
2023/06/22 05:37:32;;;;;;;;;;;;;;;;;;5083886;28;19918;-88
2023/06/22 05:39:58;;;;;;;;;;;;;;;;;;5043208;28;19920;-89
2023/06/22 05:42:25;;;;;;;;;;;;;;;;;;5044510;28;19991;-88
2023/06/22 05:44:51;;;;;;;;;;;;;;;;;;5043795;28;19921;-89
2023/06/22 05:47:17;;;;;;;;;;;;;;;;;;5045029;28;19927;-90
2023/06/22 05:52:32;;;;;;;;;;;;;;;;;;5060132;28;19920;-90
2023/06/22 05:54:58;;;;;;;;;;;;;;;;;;5044924;28;19920;-88
2023/06/22 05:57:24;;;;;;;;;;;;;;;;;;5043468;28;19920;-89
2023/06/22 05:59:50;;;;;;;;;;;;;;;;;;5043909;28;19921;-89
2023/06/22 06:02:16;;;;;;;;;;;;;;;;;;5043258;28;19920;-89
2023/06/22 06:04:42;;;;;;;;;;;;;;;;;;5042648;28;19920;-88
2023/06/22 06:07:08;;;;;;;;;;;;;;;;;;5043734;28;20404;-89
2023/06/22 06:09:34;;;;;;;;;;;;;;;;;;5042978;28;19924;-89
2023/06/22 06:12:02;;;;;;;;;;;;;;;;;;5041705;28;20003;-86
2023/06/22 06:14:28;;;;;;;;;;;;;;;;;;5039968;28;20007;-89
2023/06/22 06:16:54;;;;;;;;;;;;;;;;;;5038761;28;19970;-88
2023/06/22 06:19:20;;;;;;;;;;;;;;;;;;5038607;28;19924;-86
2023/06/22 06:22:00;;;;;;;;;;;;;;;;;;5038338;28;19927;-87
2023/06/22 06:24:26;;;;;;;;;;;;;;;;;;5038752;28;19924;-87
2023/06/22 06:26:52;;;;;;;;;;;;;;;;;;5038190;28;19928;-86
2023/06/22 06:29:17;;;;;;;;;;;;;;;;;;5038715;28;19920;-87
2023/06/22 06:31:43;;;;;;;;;;;;;;;;;;5037681;28;19927;-88
2023/06/22 06:34:09;;;;;;;;;;;;;;;;;;5039175;28;19983;-91
2023/06/22 06:36:35;;;;;;;;;;;;;;;;;;5041077;28;20026;-88
2023/06/22 06:39:03;;;;;;;;;;;;;;;;;;5040088;28;19921;-90
2023/06/22 06:41:29;;;;;;;;;;;;;;;;;;5059365;28;19921;-90
2023/06/22 06:43:55;;;;;;;;;;;;;;;;;;5042409;28;19928;-90
2023/06/22 06:46:21;;;;;;;;;;;;;;;;;;5045175;28;20388;-90
2023/06/22 06:48:47;;;;;;;;;;;;;;;;;;5044356;28;19936;-94
2023/06/22 06:51:16;;;;;;;;;;;;;;;;;;5045009;28;19931;-90
2023/06/22 06:53:42;;;;;;;;;;;;;;;;;;5043500;28;19971;-92
2023/06/22 06:56:10;;;;;;;;;;;;;;;;;;5060151;28;20460;-91
2023/06/22 06:58:38;;;;;;;;;;;;;;;;;;5040010;28;19927;-86
2023/06/22 07:01:04;;;;;;;;;;;;;;;;;;5022837;28;19987;-91
2023/06/22 07:03:32;;;;;;;;;;;;;;;;;;5024213;28;19921;-91
2023/06/22 07:05:58;;;;;;;;;;;;;;;;;;5020980;28;19932;-88
2023/06/22 07:08:24;;;;;;;;;;;;;;;;;;5021413;28;20305;-87
2023/06/22 07:10:50;;;;;;;;;;;;;;;;;;5036734;28;19925;-88
2023/06/22 07:13:16;;;;;;;;;;;;;;;;;;5039120;28;19927;-85
2023/06/22 07:15:45;;;;;;;;;;;;;;;;;;5022234;28;20016;-87
2023/06/22 07:18:11;;;;;;;;;;;;;;;;;;5021953;28;19976;-87
2023/06/22 07:20:37;;;;;;;;;;;;;;;;;;5021794;28;19917;-85
2023/06/22 07:23:03;;;;;;;;;;;;;;;;;;5020625;28;19944;-86
2023/06/22 07:25:29;;;;;;;;;;;;;;;;;;5022587;28;19921;-89
2023/06/22 07:27:55;;;;;;;;;;;;;;;;;;5023550;28;20401;-91
2023/06/22 07:30:21;;;;;;;;;;;;;;;;;;5027189;28;19928;-96
2023/06/22 07:32:47;;;;;;;;;;;;;;;;;;5027558;28;20430;-93
2023/06/22 07:35:13;;;;;;;;;;;;;;;;;;5023524;28;20282;-87
2023/06/22 07:40:15;;;;;;;;;;;;;;;;;;5046521;28;19927;-88
2023/06/22 07:42:41;;;;;;;;;;;;;;;;;;5067061;28;19921;-92
2023/06/22 07:45:07;;;;;;;;;;;;;;;;;;5043755;28;20355;-89
2023/06/22 07:47:35;;;;;;;;;;;;;;;;;;5044288;28;20309;-90
2023/06/22 07:50:11;;;;;;;;;;;;;;;;;;5042804;28;19928;-89
2023/06/22 07:52:41;;;;;;;;;;;;;;;;;;5021046;28;19921;-89
2023/06/22 07:55:07;;;;;;;;;;;;;;;;;;5046497;28;19920;-88
2023/06/22 07:57:33;;;;;;;;;;;;;;;;;;5040108;28;20301;-88
2023/06/22 08:00:04;;;;;;;;;;;;;;;;;;5021085;28;20475;-87
2023/06/22 08:05:26;;;;;;;;;;;;;;;;;;5036917;28;20284;-88
2023/06/22 08:07:53;;;;;;;;;;;;;;;;;;5021991;28;19974;-87
2023/06/22 08:10:19;;;;;;;;;;;;;;;;;;5056381;28;19967;-88
2023/06/22 08:12:45;;;;;;;;;;;;;;;;;;5040381;28;20312;-87
2023/06/22 08:17:59;;;;;;;;;;;;;;;;;;5057950;28;19924;-88
2023/06/22 08:20:25;;;;;;;;;;;;;;;;;;5056944;28;19942;-87
2023/06/22 08:22:51;;;;;;;;;;;;;;;;;;5042878;28;20019;-88
2023/06/22 08:25:17;;;;;;;;;;;;;;;;;;5061491;28;19979;-91
2023/06/22 08:27:43;;;;;;;;;;;;;;;;;;5054079;28;19924;-89
2023/06/22 08:30:10;;;;;;;;;;;;;;;;;;5060809;28;19932;-88
2023/06/22 08:32:43;;;;;;;;;;;;;;;;;;5042080;28;19920;-87
2023/06/22 08:35:09;;;;;;;;;;;;;;;;;;5044398;28;20019;-89
2023/06/22 08:37:35;;;;;;;;;;;;;;;;;;5044918;28;20392;-89
2023/06/22 08:40:01;;;;;;;;;;;;;;;;;;5045142;28;19926;-88
2023/06/22 08:42:44;;;;;;;;;;;;;;;;;;5044266;28;20350;-88
2023/06/22 08:47:46;;;;;;;;;;;;;;;;;;5097516;22;19926;-95
2023/06/22 08:50:13;;;;;;;;;;;;;;;;;;5029924;28;19933;-95
2023/06/22 08:55:15;;;;;;;;;;;;;;;;;;5228284;22;19936;-92
2023/06/22 08:57:41;;;;;;;;;;;;;;;;;;4996338;28;19925;-93
2023/06/22 09:00:11;;;;;;;;;;;;;;;;;;4998441;28;20386;-91
2023/06/22 09:02:38;;;;;;;;;;;;;;;;;;4990991;28;19921;-93
2023/06/22 09:05:04;;;;;;;;;;;;;;;;;;4991964;28;19968;-94
2023/06/22 09:07:30;;;;;;;;;;;;;;;;;;4991418;28;19914;-90
2023/06/22 09:09:56;;;;;;;;;;;;;;;;;;4989701;28;19925;-90
2023/06/22 09:12:25;;;;;;;;;;;;;;;;;;4989387;28;19983;-91
2023/06/22 09:14:51;;;;;;;;;;;;;;;;;;5021504;28;19922;-96
2023/06/22 09:17:21;;;;;;;;;;;;;;;;;;5030367;28;20020;-92
2023/06/22 09:19:47;;;;;;;;;;;;;;;;;;4993090;28;19936;-95
2023/06/22 09:22:14;;;;;;;;;;;;;;;;;;4992760;28;19925;-95
2023/06/22 09:24:40;;;;;;;;;;;;;;;;;;4990910;28;19933;-95
2023/06/22 09:27:06;;;;;;;;;;;;;;;;;;4991500;28;19925;-95
2023/06/22 09:29:33;;;;;;;;;;;;;;;;;;5024006;28;20374;-93
2023/06/22 09:32:02;;;;;;;;;;;;;;;;;;5040221;28;20012;-94
2023/06/22 09:34:28;;;;;;;;;;;;;;;;;;5041680;28;19965;-94
2023/06/22 09:37:00;;;;;;;;;;;;;;;;;;4991401;28;19926;-95
2023/06/22 09:39:28;;;;;;;;;;;;;;;;;;4994786;28;19930;-92
2023/06/22 09:41:54;;;;;;;;;;;;;;;;;;4989833;28;19937;-95
2023/06/22 09:44:20;;;;;;;;;;;;;;;;;;4989761;28;20398;-91
2023/06/22 09:46:46;;;;;;;;;;;;;;;;;;5046529;28;19966;-95
2023/06/22 09:49:14;;;;;;;;;;;;;;;;;;5026670;28;19925;-94
2023/06/22 09:51:40;;;;;;;;;;;;;;;;;;5041688;28;19944;-95
2023/06/22 09:54:06;;;;;;;;;;;;;;;;;;5025143;28;19909;-96
2023/06/22 09:56:41;;;;;;;;;;;;;;;;;;5039984;28;19921;-93
2023/06/22 09:59:09;;;;;;;;;;;;;;;;;;5023400;28;20751;-93
2023/06/22 10:01:36;;;;;;;;;;;;;;;;;;5005044;28;19932;-92
2023/06/22 10:04:02;;;;;;;;;;;;;;;;;;5025777;28;20017;-96
2023/06/22 10:06:40;;;;;;;;;;;;;;;;;;5005882;28;19929;-94
2023/06/22 10:09:06;;;;;;;;;;;;;;;;;;4991757;28;19925;-96
2023/06/22 10:11:34;;;;;;;;;;;;;;;;;;4993042;28;19981;-95
2023/06/22 10:14:00;;;;;;;;;;;;;;;;;;5021768;28;19932;-94
2023/06/22 10:16:27;;;;;;;;;;;;;;;;;;4990522;28;19988;-87
2023/06/22 10:18:53;;;;;;;;;;;;;;;;;;4989898;28;19926;-96
2023/06/22 10:21:20;;;;;;;;;;;;;;;;;;5041701;28;19993;-95
2023/06/22 10:23:45;;;;;;;;;;;;;;;;;;5009589;28;19929;-95
2023/06/22 10:26:11;;;;;;;;;;;;;;;;;;4993228;28;19925;-94
2023/06/22 10:28:37;;;;;;;;;;;;;;;;;;5025847;28;20063;-95
2023/06/22 10:31:03;;;;;;;;;;;;;;;;;;5043515;28;19975;-96
2023/06/22 10:33:29;;;;;;;;;;;;;;;;;;5026645;28;19921;-95
2023/06/22 10:35:55;;;;;;;;;;;;;;;;;;5027223;28;19968;-93
2023/06/22 10:38:22;;;;;;;;;;;;;;;;;;5027119;28;19977;-95
2023/06/22 10:40:49;;;;;;;;;;;;;;;;;;5024671;28;19967;-92
2023/06/22 10:43:15;;;;;;;;;;;;;;;;;;5005067;28;19933;-93
2023/06/22 10:45:42;;;;;;;;;;;;;;;;;;5024697;28;19944;-92
2023/06/22 10:48:08;;;;;;;;;;;;;;;;;;5023442;28;19932;-95
2023/06/22 10:50:34;;;;;;;;;;;;;;;;;;5024953;28;20374;-96
2023/06/22 10:53:00;;;;;;;;;;;;;;;;;;5009236;28;19926;-95
2023/06/22 10:55:26;;;;;;;;;;;;;;;;;;5023519;28;19968;-96
2023/06/22 10:57:56;;;;;;;;;;;;;;;;;;5007636;28;19925;-96
2023/06/22 11:00:22;;;;;;;;;;;;;;;;;;5025575;28;19932;-94
2023/06/22 11:02:48;;;;;;;;;;;;;;;;;;5007692;28;19925;-94
2023/06/22 11:05:17;;;;;;;;;;;;;;;;;;5021777;28;19926;-93
2023/06/22 11:07:44;;;;;;;;;;;;;;;;;;5020918;28;20386;-95
2023/06/22 11:10:10;;;;;;;;;;;;;;;;;;4995245;28;19975;-91
2023/06/22 11:12:45;;;;;;;;;;;;;;;;;;5027898;28;19929;-93
2023/06/22 11:15:11;;;;;;;;;;;;;;;;;;5026230;28;19925;-94
2023/06/22 11:17:37;;;;;;;;;;;;;;;;;;5024850;28;20008;-96
2023/06/22 11:20:10;;;;;;;;;;;;;;;;;;5043344;28;19997;-94
2023/06/22 11:22:36;;;;;;;;;;;;;;;;;;5043061;28;20378;-93
2023/06/22 11:25:02;;;;;;;;;;;;;;;;;;5043903;28;19956;-93
2023/06/22 11:27:31;;;;;;;;;;;;;;;;;;5045042;28;19921;-91
2023/06/22 11:29:58;;;;;;;;;;;;;;;;;;5045834;28;20460;-93
2023/06/22 11:32:27;;;;;;;;;;;;;;;;;;5053052;28;19991;-95
2023/06/22 11:35:11;;;;;;;;;;;;;;;;;;5026411;28;19925;-89
2023/06/22 11:37:37;;;;;;;;;;;;;;;;;;5040251;28;19926;-95
2023/06/22 11:40:05;;;;;;;;;;;;;;;;;;5040947;28;19953;-94
2023/06/22 11:50:18;;;;;;;;;;;;;;;;;;5854684;22;19921;-90
2023/06/22 12:00:32;;;;;;;;;;;;;;;;;;5110011;22;19925;-96
2023/06/22 12:02:58;;;;;;;;;;;;;;;;;;5030828;28;20382;-91
2023/06/22 12:05:24;;;;;;;;;;;;;;;;;;5018713;28;19925;-88
2023/06/22 12:07:52;;;;;;;;;;;;;;;;;;5034647;28;20270;-94
2023/06/22 12:10:18;;;;;;;;;;;;;;;;;;5018207;28;19925;-89
2023/06/22 12:12:44;;;;;;;;;;;;;;;;;;5005509;28;20013;-93
2023/06/22 12:15:10;;;;;;;;;;;;;;;;;;5001177;28;19957;-94
2023/06/22 12:20:10;;;;;;;;;;;;;;;;;;5016633;28;19925;-90
2023/06/22 12:22:37;;;;;;;;;;;;;;;;;;5001054;28;20051;-92
2023/06/22 12:25:03;;;;;;;;;;;;;;;;;;5000517;28;19928;-93
2023/06/22 12:27:30;;;;;;;;;;;;;;;;;;5000727;28;19922;-89
2023/06/22 12:29:56;;;;;;;;;;;;;;;;;;5002787;28;19917;-91
2023/06/22 12:32:22;;;;;;;;;;;;;;;;;;5010400;28;19930;-93
2023/06/22 12:34:48;;;;;;;;;;;;;;;;;;5008317;28;19944;-90
2023/06/22 12:37:14;;;;;;;;;;;;;;;;;;5009574;28;20401;-95
2023/06/22 12:39:40;;;;;;;;;;;;;;;;;;5026969;28;20434;-95
2023/06/22 12:42:08;;;;;;;;;;;;;;;;;;5026922;28;19925;-94
2023/06/22 12:44:43;;;;;;;;;;;;;;;;;;5015189;28;20402;-96
2023/06/22 12:47:09;;;;;;;;;;;;;;;;;;5022986;28;19925;-95
2023/06/22 12:49:35;;;;;;;;;;;;;;;;;;5008198;28;19909;-95
2023/06/22 12:52:04;;;;;;;;;;;;;;;;;;5009403;28;19925;-94
2023/06/22 12:54:30;;;;;;;;;;;;;;;;;;5010448;28;19928;-95
2023/06/22 12:56:56;;;;;;;;;;;;;;;;;;5024059;28;19926;-92
2023/06/22 12:59:23;;;;;;;;;;;;;;;;;;5008329;28;19971;-93
2023/06/22 13:01:49;;;;;;;;;;;;;;;;;;5009836;28;19926;-95
2023/06/22 13:04:15;;;;;;;;;;;;;;;;;;5008941;28;19976;-94
2023/06/22 13:06:47;;;;;;;;;;;;;;;;;;5012031;28;19948;-95
2023/06/22 13:09:13;;;;;;;;;;;;;;;;;;5013861;28;19989;-93
2023/06/22 13:11:39;;;;;;;;;;;;;;;;;;5014512;28;19909;-94
2023/06/22 13:14:05;;;;;;;;;;;;;;;;;;5012448;28;19928;-93
2023/06/22 13:16:35;;;;;;;;;;;;;;;;;;5027929;28;19922;-93
2023/06/22 13:19:07;;;;;;;;;;;;;;;;;;5011141;28;19926;-90
2023/06/22 13:21:33;;;;;;;;;;;;;;;;;;5013298;28;20442;-94
2023/06/22 13:23:59;;;;;;;;;;;;;;;;;;5011909;28;19932;-93
2023/06/22 13:26:25;;;;;;;;;;;;;;;;;;5012276;28;19926;-94
2023/06/22 13:28:51;;;;;;;;;;;;;;;;;;5014021;28;19926;-96
2023/06/22 13:31:18;;;;;;;;;;;;;;;;;;5016134;28;19920;-93
2023/06/22 13:33:46;;;;;;;;;;;;;;;;;;5028366;28;19937;-94
2023/06/22 13:36:12;;;;;;;;;;;;;;;;;;5011484;28;19926;-95
2023/06/22 13:38:41;;;;;;;;;;;;;;;;;;5009385;28;19969;-90
2023/06/22 13:41:07;;;;;;;;;;;;;;;;;;5027668;28;19925;-95
2023/06/22 13:43:32;;;;;;;;;;;;;;;;;;5026831;28;20026;-96
2023/06/22 13:45:58;;;;;;;;;;;;;;;;;;5012178;28;19925;-94
2023/06/22 13:48:25;;;;;;;;;;;;;;;;;;5014497;28;20378;-96
2023/06/22 13:50:51;;;;;;;;;;;;;;;;;;5009322;28;19909;-96
2023/06/22 13:53:17;;;;;;;;;;;;;;;;;;5012903;28;19909;-96
2023/06/22 13:55:43;;;;;;;;;;;;;;;;;;5008829;28;19917;-95
2023/06/22 13:58:09;;;;;;;;;;;;;;;;;;5006677;28;19921;-94
2023/06/22 14:00:35;;;;;;;;;;;;;;;;;;5026341;28;20384;-90
2023/06/22 14:03:01;;;;;;;;;;;;;;;;;;5008208;28;19925;-95
2023/06/22 14:05:27;;;;;;;;;;;;;;;;;;5025299;28;19925;-93
2023/06/22 14:07:54;;;;;;;;;;;;;;;;;;5006221;28;19925;-87
2023/06/22 14:10:20;;;;;;;;;;;;;;;;;;5022168;28;19926;-95
2023/06/22 14:12:46;;;;;;;;;;;;;;;;;;5006163;28;19925;-94
2023/06/22 14:15:12;;;;;;;;;;;;;;;;;;5007007;28;19944;-93
2023/06/22 14:17:38;;;;;;;;;;;;;;;;;;5004229;28;20600;-84
2023/06/22 14:20:05;;;;;;;;;;;;;;;;;;4997331;28;20378;-84
2023/06/22 14:22:31;;;;;;;;;;;;;;;;;;4998213;28;19929;-85
2023/06/22 14:24:58;;;;;;;;;;;;;;;;;;4998007;28;20293;-86
2023/06/22 14:27:24;;;;;;;;;;;;;;;;;;4997807;28;20344;-85
2023/06/22 14:29:50;;;;;;;;;;;;;;;;;;4998104;28;19929;-85
2023/06/22 14:32:16;;;;;;;;;;;;;;;;;;5014519;28;19922;-86
2023/06/22 14:34:42;;;;;;;;;;;;;;;;;;4999320;28;20405;-87
2023/06/22 14:37:14;;;;;;;;;;;;;;;;;;5015611;28;20318;-86
2023/06/22 14:39:40;;;;;;;;;;;;;;;;;;4998725;28;20392;-86
2023/06/22 14:42:06;;;;;;;;;;;;;;;;;;4999187;28;20004;-85
2023/06/22 14:44:33;;;;;;;;;;;;;;;;;;4999054;28;20004;-85
2023/06/22 14:46:59;;;;;;;;;;;;;;;;;;4998905;28;20565;-87
2023/06/22 14:49:25;;;;;;;;;;;;;;;;;;4999178;28;19972;-87
2023/06/22 14:51:50;;;;;;;;;;;;;;;;;;4998636;28;20016;-87
2023/06/22 14:54:16;;;;;;;;;;;;;;;;;;4999350;28;19960;-87
2023/06/22 14:56:43;;;;;;;;;;;;;;;;;;4998746;28;20302;-86
2023/06/22 14:59:12;;;;;;;;;;;;;;;;;;4998385;28;19969;-87
2023/06/22 15:01:38;;;;;;;;;;;;;;;;;;4998074;28;19965;-87
2023/06/22 15:04:04;;;;;;;;;;;;;;;;;;4998653;28;19932;-86
2023/06/22 15:06:30;;;;;;;;;;;;;;;;;;4998957;28;19976;-87
2023/06/22 15:08:56;;;;;;;;;;;;;;;;;;4998329;28;19930;-87
2023/06/22 15:11:22;;;;;;;;;;;;;;;;;;4997978;28;19926;-87
2023/06/22 15:13:48;;;;;;;;;;;;;;;;;;4998791;28;20016;-87
2023/06/22 15:16:14;;;;;;;;;;;;;;;;;;5015439;28;19926;-88
2023/06/22 15:18:43;;;;;;;;;;;;;;;;;;4998461;28;20267;-87
2023/06/22 15:21:09;;;;;;;;;;;;;;;;;;4998067;28;20008;-88
2023/06/22 15:23:35;;;;;;;;;;;;;;;;;;4998582;28;19993;-85
2023/06/22 15:26:01;;;;;;;;;;;;;;;;;;4998984;28;19921;-88
2023/06/22 15:28:27;;;;;;;;;;;;;;;;;;4999037;28;20040;-90
2023/06/22 15:30:53;;;;;;;;;;;;;;;;;;5016434;28;19991;-89
2023/06/22 15:33:19;;;;;;;;;;;;;;;;;;5000175;28;19909;-89
2023/06/22 15:35:45;;;;;;;;;;;;;;;;;;4999928;28;19925;-88
2023/06/22 15:38:10;;;;;;;;;;;;;;;;;;5003914;28;20296;-89
2023/06/22 15:40:37;;;;;;;;;;;;;;;;;;5017927;28;20016;-89
2023/06/22 15:43:02;;;;;;;;;;;;;;;;;;5011001;28;19980;-89
2023/06/22 15:45:28;;;;;;;;;;;;;;;;;;5006911;28;19980;-88
2023/06/22 15:47:54;;;;;;;;;;;;;;;;;;5019107;28;19925;-89
2023/06/22 15:50:20;;;;;;;;;;;;;;;;;;5018473;28;20020;-89
2023/06/22 15:52:50;;;;;;;;;;;;;;;;;;5017526;28;21278;-89
2023/06/22 15:55:15;;;;;;;;;;;;;;;;;;5024327;28;20000;-88
2023/06/22 15:57:46;;;;;;;;;;;;;;;;;;5019604;28;19967;-91
2023/06/22 16:00:13;;;;;;;;;;;;;;;;;;5014104;28;19921;-90
2023/06/22 16:02:39;;;;;;;;;;;;;;;;;;5016232;28;20358;-90
2023/06/22 16:05:05;;;;;;;;;;;;;;;;;;5019929;28;19975;-88
2023/06/22 16:07:32;;;;;;;;;;;;;;;;;;5018930;28;20004;-88
2023/06/22 16:09:57;;;;;;;;;;;;;;;;;;5013080;28;20016;-87
2023/06/22 16:12:26;;;;;;;;;;;;;;;;;;5016759;28;20456;-87
2023/06/22 16:17:38;;;;;;;;;;;;;;;;;;5033124;28;20019;-87
2023/06/22 16:20:05;;;;;;;;;;;;;;;;;;5016337;28;20022;-87
2023/06/22 16:22:31;;;;;;;;;;;;;;;;;;5033135;28;20396;-87
2023/06/22 16:24:58;;;;;;;;;;;;;;;;;;5016599;28;19925;-87
2023/06/22 16:27:24;;;;;;;;;;;;;;;;;;5013719;28;19921;-87
2023/06/22 16:35:11;;;;;;;;;;;;;;;;;;5013292;28;19929;-86
2023/06/22 16:37:48;;;;;;;;;;;;;;;;;;4997261;28;19921;-86
2023/06/22 16:40:20;;;;;;;;;;;;;;;;;;4996666;28;19954;-87
2023/06/22 16:43:01;;;;;;;;;;;;;;;;;;4998773;28;19968;-86
2023/06/22 16:45:27;;;;;;;;;;;;;;;;;;5037026;28;19921;-87
2023/06/22 16:47:53;;;;;;;;;;;;;;;;;;5019139;28;19928;-87
2023/06/22 16:50:34;;;;;;;;;;;;;;;;;;5018407;28;19932;-87
2023/06/22 16:55:49;;;;;;;;;;;;;;;;;;5036676;28;19921;-86
2023/06/22 16:58:17;;;;;;;;;;;;;;;;;;5019726;28;19925;-86
2023/06/22 17:00:43;;;;;;;;;;;;;;;;;;5036562;28;20346;-87
2023/06/22 17:03:10;;;;;;;;;;;;;;;;;;5011795;28;20345;-87
2023/06/22 17:11:10;;;;;;;;;;;;;;;;;;5037184;28;19984;-87
2023/06/22 17:13:36;;;;;;;;;;;;;;;;;;5019873;28;20286;-87
2023/06/22 17:16:02;;;;;;;;;;;;;;;;;;5036473;28;19948;-87
2023/06/22 17:18:28;;;;;;;;;;;;;;;;;;5010708;28;20300;-86
2023/06/22 17:20:56;;;;;;;;;;;;;;;;;;5016380;28;19931;-86
2023/06/22 17:23:22;;;;;;;;;;;;;;;;;;5023363;28;19928;-87
2023/06/22 17:25:54;;;;;;;;;;;;;;;;;;5024483;28;19922;-87
2023/06/22 17:28:20;;;;;;;;;;;;;;;;;;5021571;28;19925;-86
2023/06/22 17:30:46;;;;;;;;;;;;;;;;;;5031339;28;19936;-86
2023/06/22 17:33:12;;;;;;;;;;;;;;;;;;5013455;28;19921;-87
2023/06/22 17:35:38;;;;;;;;;;;;;;;;;;5011386;28;19925;-87
2023/06/22 17:38:04;;;;;;;;;;;;;;;;;;5014016;28;19995;-87